createdAt,value
2023-05-15T00:03:04.786Z,62101.41
2023-05-15T00:08:07.619Z,62110.13
2023-05-15T00:13:11.628Z,62079.97
2023-05-15T00:18:14.252Z,62060.91
2023-05-15T00:23:16.839Z,62030.94
2023-05-15T00:28:20.812Z,62054.25
2023-05-15T00:33:23.390Z,62044.75
2023-05-15T00:38:26.109Z,62015.56
2023-05-15T00:43:31.063Z,62044.66
2023-05-15T00:48:34.552Z,62028.84
2023-05-15T00:53:38.521Z,61999.94
2023-05-15T00:58:43.701Z,61978.38
2023-05-15T01:03:47.415Z,61989.13
2023-05-15T01:08:50.933Z,61984.38
2023-05-15T01:13:54.670Z,61956.13
2023-05-15T01:18:57.297Z,61949.75
2023-05-15T01:24:12.459Z,61944.31
2023-05-15T01:29:24.161Z,61970.19
2023-05-15T01:34:33.418Z,61971.66
2023-05-15T01:39:37.308Z,61974.72
2023-05-15T01:44:45.875Z,61943.38
2023-05-15T01:49:50.972Z,61954.78
2023-05-15T01:54:55.583Z,61969.56
2023-05-15T02:00:00.591Z,61951.63
2023-05-15T02:05:05.118Z,61975.56
2023-05-15T02:10:10.332Z,61928.75
2023-05-15T02:15:15.059Z,61941.41
2023-05-15T02:20:18.013Z,61932.31
2023-05-15T02:25:29.822Z,61925.38
2023-05-15T02:30:39.395Z,61923.31
2023-05-15T02:35:49.266Z,61907.59
2023-05-15T02:40:53.265Z,61904.81
2023-05-15T02:45:57.991Z,61908.31
2023-05-15T02:51:00.810Z,61894.59
2023-05-15T02:56:03.382Z,61864.75
2023-05-15T03:01:07.700Z,61867.25
2023-05-15T03:06:10.301Z,61892.06
2023-05-15T03:11:12.890Z,61877.31
2023-05-15T03:16:16.758Z,61858.53
2023-05-15T03:21:19.434Z,61845.44
2023-05-15T03:26:21.977Z,61854.53
2023-05-15T03:31:26.058Z,61847.16
2023-05-15T03:36:28.667Z,61850.66
2023-05-15T03:41:31.384Z,61830.31
2023-05-15T03:46:35.387Z,61853.56
2023-05-15T03:51:38.074Z,61825.94
2023-05-15T03:56:40.757Z,61804.31
2023-05-15T04:02:02.711Z,61894.81
2023-05-15T04:07:07.136Z,61912.63
2023-05-15T04:12:10.079Z,61856.47
2023-05-15T04:17:14.038Z,61894.78
2023-05-15T04:22:16.600Z,61875.56
2023-05-15T04:27:19.087Z,61899.50
2023-05-15T04:32:23.031Z,61885.81
2023-05-15T04:37:25.807Z,61856.84
2023-05-15T04:42:28.871Z,61855.88
2023-05-15T04:47:32.897Z,61850.22
2023-05-15T04:52:35.497Z,61885.28
2023-05-15T04:57:38.093Z,61855.25
2023-05-15T05:02:43.057Z,61910.97
2023-05-15T05:07:46.380Z,61899.94
2023-05-15T05:12:49.071Z,61931.06
2023-05-15T05:17:54.295Z,61954.03
2023-05-15T05:22:56.893Z,61969.63
2023-05-15T05:27:59.481Z,61961.59
2023-05-15T05:33:03.492Z,62009.66
2023-05-15T05:38:06.120Z,62004.06
2023-05-15T05:43:08.744Z,62010.53
2023-05-15T05:48:13.328Z,62021.50
2023-05-15T05:53:16.242Z,62021.63
2023-05-15T06:03:28.759Z,62171.84
2023-05-15T06:08:31.513Z,62115.66
2023-05-15T06:13:34.088Z,62118.47
2023-05-15T06:18:38.096Z,62102.94
2023-05-15T06:23:40.843Z,62154.97
2023-05-15T06:28:43.439Z,62318.41
2023-05-15T06:33:47.379Z,62462.34
2023-05-15T06:38:49.967Z,62595.94
2023-05-15T06:43:52.498Z,62639.59
2023-05-15T06:48:56.386Z,62716.81
2023-05-15T06:53:59.040Z,62795.47
2023-05-15T06:59:01.664Z,62793.19
2023-05-15T07:04:06.402Z,62853.16
2023-05-15T07:09:09.243Z,62808.03
2023-05-15T07:14:11.857Z,62907.28
2023-05-15T07:19:18.889Z,62917.28
2023-05-15T07:24:21.790Z,62937.56
2023-05-15T07:29:24.587Z,62965.94
2023-05-15T07:34:28.769Z,62998.78
2023-05-15T07:39:32.517Z,63115.78
2023-05-15T07:44:35.313Z,63042.34
2023-05-15T07:49:39.460Z,63152.81
2023-05-15T07:54:42.654Z,63131.06
2023-05-15T07:59:45.635Z,63111.50
2023-05-15T08:04:49.703Z,63102.41
2023-05-15T08:09:52.542Z,63184.63
2023-05-15T08:14:56.780Z,63311.94
2023-05-15T08:20:00.874Z,63302.75
2023-05-15T08:25:05.808Z,63271.22
2023-05-15T08:30:09.649Z,63342.19
2023-05-15T08:35:13.687Z,63292.19
2023-05-15T08:40:17.024Z,63330.84
2023-05-15T08:45:23.514Z,63391.03
2023-05-15T08:50:28.124Z,63399.69
2023-05-15T08:55:31.190Z,63333.56
2023-05-15T09:00:35.064Z,63371.72
2023-05-15T09:05:40.130Z,63374.19
2023-05-15T09:10:43.561Z,63368.38
2023-05-15T09:15:46.805Z,63328.94
2023-05-15T09:20:56.348Z,63353.75
2023-05-15T09:25:59.546Z,63386.75
2023-05-15T09:31:05.211Z,63344.28
2023-05-15T09:36:10.305Z,63358.69
2023-05-15T09:41:13.083Z,63420.56
2023-05-15T09:46:17.448Z,63383.38
2023-05-15T09:51:22.132Z,63409.66
2023-05-15T09:56:26.355Z,63450.69
2023-05-15T10:01:29.191Z,63555.78
2023-05-15T10:06:37.732Z,63559.13
2023-05-15T10:11:43.427Z,63459.09
2023-05-15T10:16:47.066Z,63525.84
2023-05-15T10:21:53.898Z,63459.00
2023-05-15T10:26:58.927Z,63374.00
2023-05-15T10:32:02.026Z,63336.88
2023-05-15T10:37:09.054Z,63435.88
2023-05-15T10:42:14.237Z,63454.69
2023-05-15T10:47:16.992Z,63558.84
2023-05-15T10:52:22.004Z,63449.66
2023-05-15T10:57:24.969Z,63370.13
2023-05-15T11:02:31.591Z,63456.88
2023-05-15T11:07:35.997Z,63544.75
2023-05-15T11:12:56.878Z,63544.75
2023-05-15T11:18:13.262Z,63321.97
2023-05-15T11:23:22.231Z,63153.38
2023-05-15T11:28:26.365Z,63245.81
2023-05-15T11:33:31.311Z,63407.31
2023-05-15T11:38:40.892Z,63393.38
2023-05-15T11:43:43.754Z,63391.81
2023-05-15T11:48:49.438Z,63241.91
2023-05-15T11:53:55.269Z,63219.91
2023-05-15T11:58:59.744Z,63194.00
2023-05-15T12:04:02.903Z,63142.63
2023-05-15T12:09:07.728Z,63284.75
2023-05-15T12:14:12.713Z,63339.63
2023-05-15T12:19:15.409Z,63448.91
2023-05-15T12:24:22.704Z,63425.56
2023-05-15T12:29:28.366Z,63465.94
2023-05-15T12:34:34.148Z,63427.84
2023-05-15T12:39:52.194Z,63418.69
2023-05-15T12:44:57.749Z,63426.28
2023-05-15T12:50:01.148Z,63432.22
2023-05-15T12:55:09.428Z,63386.41
2023-05-15T13:00:14.751Z,63382.56
2023-05-15T13:05:17.531Z,63369.19
2023-05-15T13:10:25.264Z,63382.78
2023-05-15T13:15:31.936Z,63356.13
2023-05-15T13:20:41.550Z,63261.63
2023-05-15T13:25:46.088Z,63234.59
2023-05-15T13:30:49.185Z,63313.63
2023-05-15T13:35:52.939Z,63272.00
2023-05-15T13:40:57.260Z,63234.06
2023-05-15T13:46:00.954Z,63294.31
2023-05-15T13:51:03.658Z,63249.38
2023-05-15T13:56:13.387Z,63261.06
2023-05-15T14:01:18.089Z,63255.97
2023-05-15T14:06:21.876Z,63180.84
2023-05-15T14:11:26.738Z,63137.91
2023-05-15T14:16:29.884Z,63125.44
2023-05-15T14:21:33.048Z,63038.34
2023-05-15T14:26:37.361Z,62978.22
2023-05-15T14:31:46.860Z,62878.88
2023-05-15T14:36:49.558Z,62819.25
2023-05-15T14:41:53.678Z,62849.44
2023-05-15T14:47:09.922Z,62784.72
2023-05-15T14:52:13.114Z,62849.75
2023-05-15T14:57:20.712Z,62831.84
2023-05-15T15:02:23.702Z,62845.38
2023-05-15T15:07:29.559Z,62802.09
2023-05-15T15:12:33.647Z,62832.63
2023-05-15T15:17:37.144Z,62757.00
2023-05-15T15:22:41.191Z,62757.41
2023-05-15T15:27:46.724Z,62720.16
2023-05-15T15:32:49.684Z,62698.38
2023-05-15T15:37:56.113Z,62737.53
2023-05-15T15:43:01.685Z,62748.91
2023-05-15T15:48:05.374Z,62735.97
2023-05-15T15:53:10.221Z,62663.47
2023-05-15T15:58:14.655Z,62619.59
2023-05-15T16:03:17.553Z,62631.69
2023-05-15T16:08:21.329Z,62612.88
2023-05-15T16:13:26.504Z,62609.31
2023-05-15T16:18:29.142Z,62710.41
2023-05-15T16:23:35.000Z,62724.97
2023-05-15T16:28:39.227Z,62788.69
2023-05-15T16:33:41.937Z,62811.19
2023-05-15T16:38:45.994Z,62709.25
2023-05-15T16:43:50.843Z,62675.50
2023-05-15T16:48:53.914Z,62630.44
2023-05-15T16:53:58.497Z,62523.13
2023-05-15T16:59:04.074Z,62524.94
2023-05-15T17:04:07.157Z,62480.44
2023-05-15T17:09:10.421Z,62488.25
2023-05-15T17:14:15.664Z,62499.25
2023-05-15T17:19:18.787Z,62473.75
2023-05-15T17:24:21.763Z,62443.75
2023-05-15T17:29:26.708Z,62465.66
2023-05-15T17:34:29.679Z,62485.25
2023-05-15T17:39:32.715Z,62387.03
2023-05-15T17:44:36.884Z,62361.88
2023-05-15T17:49:40.041Z,62362.28
2023-05-15T17:54:43.999Z,62389.41
2023-05-15T17:59:48.113Z,62343.25
2023-05-15T18:04:51.275Z,62356.19
2023-05-15T18:09:53.945Z,62339.56
2023-05-15T18:15:00.051Z,62355.06
2023-05-15T18:20:05.557Z,62331.25
2023-05-15T18:25:09.276Z,62322.66
2023-05-15T18:30:14.566Z,62300.97
2023-05-15T18:35:17.528Z,62303.56
2023-05-15T18:40:20.778Z,62290.13
2023-05-15T18:45:25.478Z,62307.94
2023-05-15T18:50:28.430Z,62306.47
2023-05-15T18:55:32.430Z,62315.81
2023-05-15T19:00:39.085Z,62278.75
2023-05-15T19:05:42.935Z,62272.41
2023-05-15T19:10:48.925Z,62268.38
2023-05-15T19:15:54.829Z,62238.53
2023-05-15T19:20:57.730Z,62252.41
2023-05-15T19:26:01.020Z,62221.78
2023-05-15T19:31:05.642Z,62256.72
2023-05-15T19:36:11.361Z,62226.69
2023-05-15T19:41:14.688Z,62209.47
2023-05-15T19:46:19.433Z,62228.41
2023-05-15T19:51:22.294Z,62203.13
2023-05-15T19:56:28.476Z,62190.34
2023-05-15T20:01:32.903Z,62123.16
2023-05-15T20:06:35.619Z,62130.28
2023-05-15T20:11:38.332Z,62173.50
2023-05-15T20:16:44.640Z,62180.25
2023-05-15T20:21:47.425Z,62116.53
2023-05-15T20:26:51.229Z,62124.00
2023-05-15T20:31:57.987Z,62065.38
2023-05-15T20:37:02.798Z,62088.97
2023-05-15T20:42:08.992Z,62030.09
2023-05-15T20:47:14.510Z,62032.97
2023-05-15T20:52:17.353Z,62040.75
2023-05-15T20:57:20.113Z,62021.19
2023-05-15T21:02:24.459Z,62018.00
2023-05-15T21:07:27.423Z,62012.69
2023-05-15T21:12:34.118Z,61994.94
2023-05-15T21:17:41.191Z,61994.94
2023-05-15T21:22:44.066Z,62018.97
2023-05-15T21:27:46.785Z,61996.34
2023-05-15T21:32:50.887Z,61977.50
2023-05-15T21:37:53.655Z,61997.47
2023-05-15T21:42:56.491Z,61961.47
2023-05-15T21:48:01.210Z,61978.00
2023-05-15T21:53:06.181Z,61966.59
2023-05-15T21:58:08.902Z,61945.06
2023-05-15T22:03:13.124Z,61967.50
2023-05-15T22:08:16.453Z,61990.97
2023-05-15T22:13:19.211Z,61949.22
2023-05-15T22:18:23.345Z,61976.00
2023-05-15T22:23:27.361Z,61986.84
2023-05-15T22:28:30.041Z,61952.34
2023-05-15T22:33:44.829Z,61972.13
2023-05-15T22:38:49.849Z,61951.13
2023-05-15T22:43:53.013Z,61944.38
2023-05-15T22:49:00.508Z,61927.59
2023-05-15T22:54:03.628Z,61933.19
2023-05-15T22:59:06.792Z,61978.00
2023-05-15T23:04:11.382Z,61948.66
2023-05-15T23:09:14.264Z,61956.88
2023-05-15T23:14:17.616Z,61919.38
2023-05-15T23:19:21.788Z,61950.38
2023-05-15T23:24:24.924Z,61940.50
2023-05-15T23:29:27.672Z,61894.06
2023-05-15T23:34:31.649Z,61909.97
2023-05-15T23:39:36.130Z,61931.84
2023-05-15T23:44:38.930Z,61913.63
2023-05-15T23:49:43.162Z,61877.59
2023-05-15T23:54:46.330Z,61917.91
2023-05-15T23:59:49.026Z,61877.66
